Time;durP1;ratioP1;P1;durP2;ratioP2;P2;SDS_P1;SDS_P2;PMS_P1;PMS_P2;Temp;Humidity;BMP_temperature;BMP_pressure;BME280_temperature;BME280_humidity;BME280_pressure;Samples;Min_cycle;Max_cycle;Signal;HPM_P1;HPM_P2
2023/01/29 00:01:08;;;;;;;20.88;13.90;;;0.90;82.10;;;;;;5092924;28;20522;-78
2023/01/29 00:03:34;;;;;;;21.15;14.68;;;0.90;82.20;;;;;;5092994;28;20063;-77
2023/01/29 00:06:05;;;;;;;24.10;15.38;;;1.00;81.80;;;;;;5091333;28;20027;-78
2023/01/29 00:08:33;;;;;;;22.63;14.93;;;1.00;81.60;;;;;;5092927;28;20380;-77
2023/01/29 00:11:04;;;;;;;22.73;14.63;;;0.90;81.20;;;;;;5092965;28;20031;-77
2023/01/29 00:13:29;;;;;;;22.67;14.60;;;0.90;81.40;;;;;;5092893;28;20055;-77
2023/01/29 00:15:57;;;;;;;21.02;14.27;;;1.00;81.30;;;;;;5092858;28;20060;-74
2023/01/29 00:18:23;;;;;;;19.92;13.25;;;0.90;81.30;;;;;;5092882;28;20471;-74
2023/01/29 00:20:48;;;;;;;20.27;13.50;;;0.90;80.90;;;;;;5092790;28;20492;-74
2023/01/29 00:23:14;;;;;;;68.40;39.63;;;1.00;80.90;;;;;;5092464;28;20028;-74
2023/01/29 00:25:41;;;;;;;44.42;27.17;;;1.00;81.60;;;;;;5094620;28;20469;-75
2023/01/29 00:28:06;;;;;;;35.72;22.48;;;1.00;81.40;;;;;;5096626;28;20128;-75
2023/01/29 00:30:32;;;;;;;23.35;15.25;;;1.00;81.50;;;;;;5096664;28;20103;-75
2023/01/29 00:32:58;;;;;;;22.02;14.50;;;0.90;80.90;;;;;;5096358;28;20055;-75
2023/01/29 00:35:23;;;;;;;22.45;14.45;;;0.90;80.80;;;;;;5096612;28;20024;-75
2023/01/29 00:37:49;;;;;;;19.77;13.15;;;0.90;80.60;;;;;;5096476;28;20038;-75
2023/01/29 00:40:15;;;;;;;19.75;14.07;;;0.80;80.50;;;;;;5096253;28;20028;-75
2023/01/29 00:45:27;;;;;;;21.20;14.48;;;0.70;80.80;;;;;;5096379;28;20055;-75
2023/01/29 00:47:52;;;;;;;27.95;16.15;;;0.70;81.00;;;;;;5096413;28;20465;-75
2023/01/29 00:50:18;;;;;;;22.73;15.30;;;0.70;81.30;;;;;;5096064;28;20490;-75
2023/01/29 00:52:44;;;;;;;20.95;14.13;;;0.60;81.00;;;;;;5095020;28;20051;-75
2023/01/29 00:55:10;;;;;;;25.35;16.38;;;0.60;81.30;;;;;;5096295;28;20020;-74
2023/01/29 00:57:37;;;;;;;24.02;15.63;;;0.70;81.40;;;;;;5096114;28;20023;-75
2023/01/29 01:00:07;;;;;;;24.00;15.60;;;0.70;81.40;;;;;;5095950;28;20023;-75
2023/01/29 01:05:17;;;;;;;24.15;15.55;;;0.70;81.00;;;;;;5095973;28;20035;-75
2023/01/29 01:07:48;;;;;;;22.45;14.98;;;0.70;80.90;;;;;;5095866;28;20020;-75
2023/01/29 01:10:19;;;;;;;22.92;15.15;;;0.60;80.70;;;;;;5095921;28;20027;-75
2023/01/29 01:12:46;;;;;;;22.08;15.52;;;0.60;80.90;;;;;;5095893;28;20031;-75
2023/01/29 01:15:12;;;;;;;24.95;15.40;;;0.70;81.10;;;;;;5095801;28;20024;-75
2023/01/29 01:17:37;;;;;;;23.05;14.05;;;0.70;81.30;;;;;;5095569;28;20038;-75
2023/01/29 01:20:04;;;;;;;22.67;15.27;;;0.80;81.20;;;;;;5095777;28;20095;-74
2023/01/29 01:22:30;;;;;;;20.98;14.68;;;0.80;81.00;;;;;;5095579;28;20024;-74
2023/01/29 01:24:56;;;;;;;21.17;14.15;;;0.80;80.80;;;;;;5095713;28;20432;-74
2023/01/29 01:27:22;;;;;;;22.83;15.48;;;0.90;80.70;;;;;;5095657;28;20052;-74
2023/01/29 01:29:47;;;;;;;22.30;14.45;;;0.80;80.20;;;;;;5095579;28;20024;-75
2023/01/29 01:32:14;;;;;;;22.15;15.10;;;0.80;80.30;;;;;;5095484;28;20027;-75
2023/01/29 01:34:40;;;;;;;22.38;14.60;;;0.90;80.50;;;;;;5095568;28;20039;-75
2023/01/29 01:37:05;;;;;;;23.63;14.38;;;0.90;80.40;;;;;;5095101;28;20457;-75
2023/01/29 01:39:31;;;;;;;20.48;14.00;;;0.90;80.30;;;;;;5095375;28;20035;-74
2023/01/29 01:41:56;;;;;;;27.13;15.38;;;0.90;80.30;;;;;;5095131;28;20040;-74
2023/01/29 01:44:54;;;;;;;24.23;15.65;;;0.90;80.10;;;;;;5094996;28;20039;-75
2023/01/29 01:47:40;;;;;;;21.83;14.77;;;0.90;79.80;;;;;;5095175;28;20040;-74
2023/01/29 01:50:35;;;;;;;22.17;14.32;;;0.90;79.80;;;;;;5093873;28;20028;-75
2023/01/29 01:53:11;;;;;;;21.33;14.23;;;0.90;79.90;;;;;;5092172;28;20518;-75
2023/01/29 01:55:47;;;;;;;19.80;13.32;;;0.90;79.90;;;;;;5093075;28;20044;-75
2023/01/29 01:58:22;;;;;;;20.90;12.32;;;0.90;79.80;;;;;;5095065;28;20016;-75
2023/01/29 02:00:48;;;;;;;20.75;12.80;;;1.00;79.50;;;;;;5094808;28;20098;-75
2023/01/29 02:11:39;;;;;;;14.30;10.27;;;1.10;78.00;;;;;;5094528;28;20073;-74
2023/01/29 02:14:07;;;;;;;12.93;9.18;;;1.10;77.40;;;;;;5094458;28;20020;-74
2023/01/29 02:16:35;;;;;;;13.45;9.48;;;1.10;76.80;;;;;;5094577;28;20085;-75
2023/01/29 02:19:02;;;;;;;14.85;11.15;;;1.00;75.30;;;;;;5094505;28;20020;-74
2023/01/29 02:21:36;;;;;;;17.10;11.82;;;1.00;76.20;;;;;;5094334;28;20540;-74
2023/01/29 02:24:47;;;;;;;17.35;10.98;;;1.00;76.70;;;;;;5094375;28;20400;-73
2023/01/29 02:27:18;;;;;;;15.93;10.32;;;1.00;76.70;;;;;;5094325;28;20027;-74
2023/01/29 02:30:10;;;;;;;13.77;9.45;;;1.00;76.20;;;;;;5094363;28;20510;-74
2023/01/29 02:33:01;;;;;;;17.58;11.60;;;1.00;76.00;;;;;;5092831;28;20024;-74
2023/01/29 02:35:43;;;;;;;38.75;23.60;;;1.00;74.20;;;;;;5094285;28;20016;-74
2023/01/29 02:38:29;;;;;;;25.88;16.20;;;1.10;74.60;;;;;;5093005;28;20031;-74
2023/01/29 02:40:57;;;;;;;13.82;9.48;;;1.10;74.40;;;;;;5094018;28;20558;-74
2023/01/29 02:43:50;;;;;;;10.75;7.10;;;1.10;73.60;;;;;;5092593;28;20048;-74
2023/01/29 02:46:37;;;;;;;9.45;6.32;;;1.10;73.00;;;;;;5094120;28;20035;-73
2023/01/29 02:49:12;;;;;;;10.32;7.25;;;1.10;72.50;;;;;;5093084;28;20486;-74
2023/01/29 02:51:45;;;;;;;8.53;6.33;;;1.00;72.40;;;;;;5094017;28;20385;-75
2023/01/29 02:54:26;;;;;;;8.55;6.18;;;1.10;72.60;;;;;;5093975;28;20066;-74
2023/01/29 02:56:58;;;;;;;8.15;5.85;;;1.10;72.40;;;;;;5093905;28;20080;-74
2023/01/29 02:59:36;;;;;;;8.73;6.28;;;1.00;72.30;;;;;;5093673;28;20040;-76
2023/01/29 03:02:07;;;;;;;7.47;5.57;;;1.10;72.50;;;;;;5093797;28;20024;-75
2023/01/29 03:04:41;;;;;;;9.80;6.28;;;1.10;72.40;;;;;;5092421;28;20036;-76
2023/01/29 03:07:39;;;;;;;8.30;6.55;;;1.00;72.20;;;;;;5093660;28;20457;-76
2023/01/29 03:10:00;;;;;;;8.77;6.07;;;1.00;72.00;;;;;;5093488;28;20035;-77
2023/01/29 03:12:32;;;;;;;9.98;6.60;;;1.00;72.20;;;;;;5093577;28;20076;-77
2023/01/29 03:15:16;;;;;;;9.25;6.45;;;1.00;71.90;;;;;;5093225;28;20012;-76
2023/01/29 03:18:15;;;;;;;8.55;6.07;;;1.00;72.20;;;;;;5093501;28;20047;-74
2023/01/29 03:20:46;;;;;;;10.10;6.65;;;1.00;72.40;;;;;;5093290;28;20017;-76
2023/01/29 03:23:22;;;;;;;8.23;6.03;;;1.10;72.50;;;;;;5093409;28;20384;-76
2023/01/29 03:34:22;;;;;;;9.02;6.88;;;1.00;73.10;;;;;;5093589;28;20470;-75
2023/01/29 03:36:58;;;;;;;7.72;5.72;;;1.00;72.50;;;;;;5093379;28;20103;-74
2023/01/29 03:39:27;;;;;;;9.73;6.75;;;0.90;72.80;;;;;;5091921;28;20028;-74
2023/01/29 03:42:07;;;;;;;10.85;6.80;;;0.90;72.80;;;;;;5092904;28;20024;-74
2023/01/29 03:44:54;;;;;;;9.43;6.45;;;0.90;73.00;;;;;;5093173;28;20046;-74
2023/01/29 03:47:26;;;;;;;8.82;6.15;;;0.90;73.00;;;;;;5093185;28;20054;-74
2023/01/29 03:49:55;;;;;;;10.02;7.22;;;0.90;73.00;;;;;;5091932;28;20032;-73
2023/01/29 03:52:41;;;;;;;8.18;6.05;;;0.90;73.00;;;;;;5092990;28;20384;-73
2023/01/29 03:55:13;;;;;;;;;;;0.90;72.80;;;;;;5072153;28;20563;-73
2023/01/29 03:57:49;;;;;;;8.50;5.95;;;0.90;72.70;;;;;;5093131;28;20452;-73
2023/01/29 04:00:21;;;;;;;8.85;6.40;;;0.90;72.70;;;;;;5096133;28;20095;-74
2023/01/29 04:03:17;;;;;;;9.32;6.40;;;0.90;72.50;;;;;;5097239;28;20039;-74
2023/01/29 04:05:51;;;;;;;9.05;5.90;;;0.90;72.40;;;;;;5099462;28;20032;-74
2023/01/29 04:08:26;;;;;;;8.03;6.33;;;0.90;72.40;;;;;;5097385;28;20081;-74
2023/01/29 04:10:56;;;;;;;7.70;5.85;;;0.90;72.40;;;;;;5095899;28;20267;-74
2023/01/29 04:13:23;;;;;;;8.68;6.40;;;0.90;72.20;;;;;;5097014;28;20024;-74
2023/01/29 04:15:54;;;;;;;9.15;6.50;;;0.90;72.20;;;;;;5096959;28;20035;-74
2023/01/29 04:18:20;;;;;;;9.13;6.28;;;0.90;72.20;;;;;;5096774;28;20039;-74
2023/01/29 04:20:46;;;;;;;9.95;6.53;;;0.90;72.10;;;;;;5096903;28;20020;-73
2023/01/29 04:23:23;;;;;;;7.57;5.53;;;0.90;70.70;;;;;;5096715;28;20117;-73
2023/01/29 04:26:07;;;;;;;7.47;5.50;;;0.70;69.60;;;;;;5096735;28;20426;-72
2023/01/29 04:29:02;;;;;;;8.48;5.95;;;0.60;70.10;;;;;;5096604;28;20153;-74
2023/01/29 04:31:35;;;;;;;8.30;5.82;;;0.60;70.50;;;;;;5096798;28;20099;-73
2023/01/29 04:34:45;;;;;;;8.23;6.03;;;0.60;70.90;;;;;;5095430;28;20024;-73
2023/01/29 04:37:18;;;;;;;8.32;6.07;;;0.70;70.90;;;;;;5076786;28;20064;-73
2023/01/29 04:39:54;;;;;;;8.57;6.68;;;0.70;71.00;;;;;;5096583;28;20020;-73
2023/01/29 04:42:30;;;;;;;8.18;6.60;;;0.70;71.10;;;;;;5096295;28;20061;-75
2023/01/29 04:45:08;;;;;;;8.20;6.07;;;0.70;71.30;;;;;;5096356;28;20039;-74
2023/01/29 04:47:55;;;;;;;8.73;6.32;;;0.70;71.10;;;;;;5096355;28;20024;-74
2023/01/29 04:50:27;;;;;;;6.97;5.55;;;0.70;71.10;;;;;;5096217;28;20380;-75
2023/01/29 04:53:05;;;;;;;9.38;5.85;;;0.70;71.20;;;;;;5096300;28;20020;-76
2023/01/29 04:55:57;;;;;;;9.07;6.07;;;0.70;71.30;;;;;;5096023;28;20366;-76
2023/01/29 04:58:36;;;;;;;8.55;6.25;;;0.70;71.30;;;;;;5091349;28;20065;-76
2023/01/29 05:01:05;;;;;;;8.30;6.47;;;0.70;71.30;;;;;;5096069;28;20062;-75
2023/01/29 05:03:33;;;;;;;8.32;6.07;;;0.70;71.30;;;;;;5096001;28;20034;-76
2023/01/29 05:06:00;;;;;;;8.02;5.95;;;0.70;71.00;;;;;;5094679;28;20484;-75
2023/01/29 05:08:28;;;;;;;9.20;6.00;;;0.70;71.30;;;;;;5095962;28;20364;-75
2023/01/29 05:10:57;;;;;;;7.85;6.13;;;0.70;71.40;;;;;;5095232;28;20082;-75
2023/01/29 05:13:24;;;;;;;7.47;5.75;;;0.70;71.60;;;;;;5095702;28;20027;-75
2023/01/29 05:16:00;;;;;;;9.38;6.63;;;0.60;71.70;;;;;;5096176;28;20092;-75
2023/01/29 05:18:28;;;;;;;9.95;6.47;;;0.60;71.90;;;;;;5095855;28;20080;-76
2023/01/29 05:20:56;;;;;;;9.52;6.10;;;0.70;72.30;;;;;;5095628;28;20484;-76
2023/01/29 05:23:22;;;;;;;9.10;7.03;;;0.70;72.30;;;;;;5095459;28;20039;-76
2023/01/29 05:25:50;;;;;;;7.80;6.25;;;0.70;72.40;;;;;;5095543;28;20052;-76
2023/01/29 05:28:16;;;;;;;8.98;6.55;;;0.70;72.50;;;;;;5095761;28;20020;-77
2023/01/29 05:30:44;;;;;;;6.50;5.28;;;0.70;72.50;;;;;;5095613;28;20069;-77
2023/01/29 05:33:18;;;;;;;8.20;5.95;;;0.80;72.40;;;;;;5095481;28;20060;-77
2023/01/29 05:35:44;;;;;;;7.15;5.22;;;0.70;72.20;;;;;;5095553;28;20024;-73
2023/01/29 05:38:10;;;;;;;6.40;5.20;;;0.70;72.20;;;;;;5095454;28;20021;-74
2023/01/29 05:40:37;;;;;;;7.25;5.68;;;0.70;72.10;;;;;;5095253;28;20027;-73
2023/01/29 05:43:03;;;;;;;7.43;5.72;;;0.80;71.90;;;;;;5095127;28;20508;-73
2023/01/29 05:45:29;;;;;;;7.18;5.55;;;0.80;71.70;;;;;;5095340;28;20024;-77
2023/01/29 05:47:58;;;;;;;7.80;5.68;;;0.80;71.60;;;;;;5095234;28;20028;-77
2023/01/29 05:50:25;;;;;;;7.85;5.72;;;0.80;71.80;;;;;;5095211;28;20032;-77
2023/01/29 05:52:59;;;;;;;7.72;5.90;;;0.80;71.80;;;;;;5094969;28;20127;-77
2023/01/29 05:55:25;;;;;;;8.07;6.28;;;0.80;71.80;;;;;;5094699;28;20476;-76
2023/01/29 05:57:50;;;;;;;8.02;5.90;;;0.80;71.70;;;;;;5093284;28;20043;-77
2023/01/29 06:00:16;;;;;;;7.25;5.30;;;0.70;71.90;;;;;;5092478;28;20384;-77
2023/01/29 06:02:42;;;;;;;7.22;5.50;;;0.70;71.80;;;;;;5093438;28;20105;-77
2023/01/29 06:05:08;;;;;;;5.43;4.07;;;0.70;71.60;;;;;;5094066;28;20473;-77
2023/01/29 06:07:33;;;;;;;5.60;4.30;;;0.70;71.60;;;;;;5094711;28;20079;-77
2023/01/29 06:09:59;;;;;;;4.82;3.88;;;0.70;71.20;;;;;;5094969;28;20417;-77
2023/01/29 06:12:26;;;;;;;5.63;4.25;;;0.70;70.90;;;;;;5094707;28;20137;-76
2023/01/29 06:14:51;;;;;;;7.45;5.32;;;0.70;70.50;;;;;;5094738;28;20016;-77
2023/01/29 06:17:17;;;;;;;6.90;5.43;;;0.70;70.30;;;;;;5094460;28;20020;-76
2023/01/29 06:19:42;;;;;;;8.13;5.75;;;0.60;70.80;;;;;;5093366;28;20035;-76
2023/01/29 06:22:08;;;;;;;7.95;5.25;;;0.40;71.90;;;;;;5093843;28;20024;-76
2023/01/29 06:24:34;;;;;;;9.48;6.10;;;0.40;71.80;;;;;;5093733;28;20036;-77
2023/01/29 06:26:59;;;;;;;10.40;5.80;;;0.40;71.50;;;;;;5094535;28;20472;-77
2023/01/29 06:29:25;;;;;;;6.18;4.75;;;0.40;71.50;;;;;;5093159;28;20379;-77
2023/01/29 06:31:50;;;;;;;7.72;5.30;;;0.30;71.40;;;;;;5094350;28;20409;-76
2023/01/29 06:34:16;;;;;;;6.93;5.05;;;0.20;72.10;;;;;;5094163;28;20407;-77
2023/01/29 06:36:42;;;;;;;6.18;4.60;;;0.00;73.10;;;;;;5093046;28;20085;-75
2023/01/29 06:39:07;;;;;;;6.43;4.40;;;0.00;73.80;;;;;;5094320;28;20024;-77
2023/01/29 06:41:33;;;;;;;9.35;4.68;;;0.00;74.10;;;;;;5094261;28;20024;-77
2023/01/29 06:43:59;;;;;;;7.75;4.90;;;0.00;74.10;;;;;;5093886;28;20048;-74
2023/01/29 06:46:24;;;;;;;5.97;4.47;;;0.00;73.50;;;;;;5094088;28;20107;-74
2023/01/29 06:48:50;;;;;;;5.25;4.13;;;-0.10;73.50;;;;;;5094157;28;20028;-74
2023/01/29 06:51:16;;;;;;;5.75;4.28;;;-0.20;73.70;;;;;;5094017;28;20024;-74
2023/01/29 06:53:41;;;;;;;5.78;4.68;;;-0.20;73.70;;;;;;5094045;28;20020;-75
2023/01/29 06:56:07;;;;;;;5.70;4.43;;;-0.20;73.30;;;;;;5093791;28;20024;-75
2023/01/29 06:58:35;;;;;;;5.65;4.35;;;-0.20;73.20;;;;;;5093906;28;20103;-77
2023/01/29 07:01:08;;;;;;;6.53;4.40;;;-0.20;73.30;;;;;;5093678;28;20598;-76
2023/01/29 07:03:34;;;;;;;11.85;5.38;;;-0.30;73.50;;;;;;5094470;28;20032;-76
2023/01/29 07:06:00;;;;;;;6.25;4.45;;;-0.30;73.80;;;;;;5092685;28;20024;-74
2023/01/29 07:08:27;;;;;;;5.57;4.00;;;-0.20;73.90;;;;;;5093834;28;20020;-74
2023/01/29 07:10:57;;;;;;;6.07;4.75;;;-0.20;73.20;;;;;;5093539;28;20016;-74
2023/01/29 07:13:22;;;;;;;6.22;4.60;;;-0.10;73.20;;;;;;5093660;28;20081;-74
2023/01/29 07:15:48;;;;;;;8.68;5.30;;;-0.10;73.40;;;;;;5093546;28;20072;-74
2023/01/29 07:18:13;;;;;;;7.07;4.80;;;-0.10;73.10;;;;;;5093507;28;20457;-74
2023/01/29 07:20:40;;;;;;;6.65;4.80;;;-0.10;73.20;;;;;;5093532;28;20019;-74
2023/01/29 07:23:11;;;;;;;7.20;5.07;;;-0.10;73.60;;;;;;5093407;28;20085;-74
2023/01/29 07:25:36;;;;;;;6.75;5.00;;;-0.10;73.60;;;;;;5093538;28;20495;-74
2023/01/29 07:28:02;;;;;;;6.55;5.15;;;-0.20;74.50;;;;;;5093074;28;20032;-74
2023/01/29 07:30:28;;;;;;;6.75;4.78;;;-0.30;74.90;;;;;;5093356;28;20050;-74
2023/01/29 07:32:54;;;;;;;5.75;4.63;;;-0.40;74.80;;;;;;5091885;28;20024;-75
2023/01/29 07:35:19;;;;;;;6.68;5.15;;;-0.30;74.30;;;;;;5092899;28;20476;-74
2023/01/29 07:37:49;;;;;;;8.68;5.38;;;-0.30;74.20;;;;;;5092898;28;20046;-75
2023/01/29 07:40:14;;;;;;;7.55;5.50;;;-0.20;74.00;;;;;;5093142;28;20036;-75
2023/01/29 07:42:43;;;;;;;5.95;4.30;;;-0.10;73.90;;;;;;5092808;28;20137;-75
2023/01/29 07:45:10;;;;;;;7.30;4.68;;;0.00;73.70;;;;;;5092794;28;20075;-75
2023/01/29 07:47:36;;;;;;;7.85;5.07;;;0.10;73.50;;;;;;5091812;28;20411;-75
2023/01/29 07:50:02;;;;;;;7.38;5.53;;;0.20;73.00;;;;;;5092975;28;20043;-74
2023/01/29 07:52:30;;;;;;;7.07;5.43;;;0.20;72.10;;;;;;5092845;28;20027;-75
2023/01/29 07:54:56;;;;;;;10.23;6.15;;;0.20;72.10;;;;;;5092681;28;20086;-74
2023/01/29 07:57:22;;;;;;;8.98;6.28;;;0.20;72.30;;;;;;5092828;28;20020;-74
2023/01/29 07:59:47;;;;;;;7.18;5.18;;;0.20;72.20;;;;;;5091526;28;20392;-74
2023/01/29 08:02:13;;;;;;;6.63;4.85;;;0.20;71.90;;;;;;5092838;28;20024;-76
2023/01/29 08:04:38;;;;;;;5.28;4.07;;;0.20;72.00;;;;;;5092580;28;20071;-73
2023/01/29 08:07:04;;;;;;;6.20;4.50;;;0.20;72.20;;;;;;5091552;28;20032;-73
2023/01/29 08:09:30;;;;;;;5.65;3.85;;;0.20;72.30;;;;;;5092777;28;20088;-73
2023/01/29 08:11:56;;;;;;;6.22;4.63;;;0.30;72.30;;;;;;5092731;28;20027;-75
2023/01/29 08:14:22;;;;;;;6.93;5.18;;;0.30;72.00;;;;;;5092584;28;20428;-74
2023/01/29 08:16:48;;;;;;;7.50;5.38;;;0.50;71.90;;;;;;5092548;28;20024;-75
2023/01/29 08:19:14;;;;;;;8.18;6.05;;;0.50;71.30;;;;;;5092824;28;20058;-73
2023/01/29 08:21:39;;;;;;;7.05;5.68;;;0.50;71.20;;;;;;5092737;28;20050;-73
2023/01/29 08:24:05;;;;;;;8.82;5.55;;;0.50;71.40;;;;;;5092653;28;20054;-74
2023/01/29 08:26:30;;;;;;;6.07;4.38;;;0.50;71.30;;;;;;5092684;28;20443;-74
2023/01/29 08:28:56;;;;;;;9.18;6.00;;;0.50;71.40;;;;;;5092700;28;20108;-73
2023/01/29 08:31:22;;;;;;;9.15;6.15;;;0.40;71.10;;;;;;5092903;28;20027;-73
2023/01/29 08:33:47;;;;;;;19.55;11.90;;;0.50;71.30;;;;;;5092639;28;20106;-74
2023/01/29 08:36:13;;;;;;;14.57;9.63;;;0.40;72.90;;;;;;5092745;28;20024;-74
2023/01/29 08:38:39;;;;;;;14.35;7.90;;;0.50;73.30;;;;;;5092626;28;20024;-72
2023/01/29 08:41:05;;;;;;;8.60;6.05;;;0.50;72.20;;;;;;5092437;28;20074;-73
2023/01/29 08:43:31;;;;;;;7.63;5.38;;;0.50;71.50;;;;;;5092288;28;20051;-73
2023/01/29 08:45:56;;;;;;;7.82;5.63;;;0.50;72.00;;;;;;5093341;28;20101;-74
2023/01/29 08:48:22;;;;;;;7.13;5.30;;;0.40;71.30;;;;;;5096302;28;20502;-73
2023/01/29 08:50:48;;;;;;;8.40;5.88;;;0.40;71.60;;;;;;5096322;28;20105;-74
2023/01/29 08:53:13;;;;;;;7.57;5.95;;;0.30;72.50;;;;;;5094718;28;20024;-75
2023/01/29 08:55:39;;;;;;;7.13;5.28;;;0.20;72.50;;;;;;5096203;28;20031;-75
2023/01/29 08:58:07;;;;;;;9.30;6.80;;;0.20;72.30;;;;;;5095990;28;20031;-73
2023/01/29 09:00:34;;;;;;;10.32;7.90;;;0.20;73.20;;;;;;5096103;28;20024;-74
2023/01/29 09:03:00;;;;;;;8.25;6.53;;;0.40;74.90;;;;;;5095942;28;20098;-74
2023/01/29 09:05:26;;;;;;;10.45;6.75;;;0.60;72.90;;;;;;5095678;28;20030;-75
2023/01/29 09:07:53;;;;;;;8.85;6.38;;;0.80;73.70;;;;;;5094615;28;20027;-75
2023/01/29 09:10:19;;;;;;;10.38;7.65;;;0.90;71.80;;;;;;5095648;28;20020;-74
2023/01/29 09:12:44;;;;;;;7.88;6.07;;;0.90;70.50;;;;;;5095763;28;20097;-76
2023/01/29 09:15:10;;;;;;;11.50;7.05;;;0.80;70.70;;;;;;5095700;28;20103;-74
2023/01/29 09:17:36;;;;;;;14.23;6.22;;;0.80;71.10;;;;;;5093139;28;20051;-76
2023/01/29 09:20:03;;;;;;;8.52;6.15;;;0.80;72.50;;;;;;5095125;28;20035;-78
2023/01/29 09:22:28;;;;;;;9.00;5.40;;;1.20;74.40;;;;;;5095582;28;20024;-73
2023/01/29 09:24:54;;;;;;;8.05;5.07;;;1.50;73.70;;;;;;5095585;28;20109;-75
2023/01/29 09:27:20;;;;;;;7.90;5.28;;;2.00;72.40;;;;;;5100027;28;20487;-78
2023/01/29 09:29:45;;;;;;;7.57;4.95;;;2.70;70.20;;;;;;5095755;28;20028;-76
2023/01/29 09:32:11;;;;;;;7.07;4.97;;;3.20;68.30;;;;;;5094434;28;20384;-78
2023/01/29 09:34:37;;;;;;;5.53;4.15;;;3.70;64.40;;;;;;5095466;28;20469;-77
2023/01/29 09:37:02;;;;;;;5.78;4.70;;;3.80;62.40;;;;;;5094803;28;20063;-75
2023/01/29 09:39:28;;;;;;;7.38;5.28;;;3.60;61.50;;;;;;5094808;28;20028;-75
2023/01/29 09:42:07;;;;;;;5.50;4.78;;;3.30;61.30;;;;;;5095121;28;20081;-76
2023/01/29 09:45:01;;;;;;;11.93;7.38;;;3.00;62.00;;;;;;5095057;28;20480;-78
2023/01/29 09:47:28;;;;;;;18.17;10.50;;;2.70;62.80;;;;;;5094885;28;20538;-76
2023/01/29 09:50:04;;;;;;;9.75;6.85;;;2.60;63.50;;;;;;5094868;28;20044;-77
2023/01/29 09:52:45;;;;;;;9.27;6.32;;;2.40;64.10;;;;;;5094200;28;20043;-76
2023/01/29 09:55:34;;;;;;;8.55;6.38;;;2.10;64.10;;;;;;5094544;28;20358;-77
2023/01/29 09:58:26;;;;;;;8.05;5.88;;;1.80;65.20;;;;;;5094756;28;20024;-76
2023/01/29 10:01:07;;;;;;;10.18;7.30;;;1.60;64.80;;;;;;5094605;28;20082;-76
2023/01/29 10:04:10;;;;;;;8.18;5.72;;;1.10;67.20;;;;;;5094637;28;20039;-75
2023/01/29 10:06:57;;;;;;;9.18;6.32;;;0.70;68.20;;;;;;5094672;28;20032;-76
2023/01/29 10:09:29;;;;;;;7.07;5.68;;;0.50;69.20;;;;;;5094547;28;20020;-76
2023/01/29 10:12:30;;;;;;;9.20;6.55;;;0.50;70.10;;;;;;5094796;28;20024;-77
2023/01/29 10:15:12;;;;;;;9.25;6.82;;;0.40;70.00;;;;;;5094306;28;20541;-74
2023/01/29 10:17:50;;;;;;;10.63;7.03;;;0.40;70.90;;;;;;5094634;28;20507;-74
2023/01/29 10:20:41;;;;;;;8.27;6.40;;;0.40;70.70;;;;;;5094535;28;20082;-74
2023/01/29 10:23:38;;;;;;;10.48;7.00;;;0.30;71.30;;;;;;5094490;28;20042;-74
2023/01/29 10:26:08;;;;;;;8.25;6.20;;;0.20;71.10;;;;;;5085678;28;20035;-76
2023/01/29 10:28:37;;;;;;;7.68;5.97;;;0.30;70.90;;;;;;5092312;28;20092;-74
2023/01/29 10:31:12;;;;;;;7.97;5.80;;;0.50;70.60;;;;;;5094094;28;20024;-74
2023/01/29 10:33:39;;;;;;;7.25;5.80;;;0.60;70.00;;;;;;5093205;28;20016;-75
2023/01/29 10:36:11;;;;;;;9.18;6.20;;;0.80;69.70;;;;;;5093898;28;20070;-75
2023/01/29 10:38:45;;;;;;;7.47;5.82;;;0.90;68.60;;;;;;5092956;28;20027;-75
2023/01/29 10:41:29;;;;;;;7.90;5.88;;;1.10;67.90;;;;;;5094157;28;20020;-76
2023/01/29 10:44:30;;;;;;;8.65;6.45;;;1.10;67.70;;;;;;5093746;28;20048;-75
2023/01/29 10:47:17;;;;;;;7.65;5.70;;;1.20;67.40;;;;;;5094071;28;20021;-78
2023/01/29 10:49:46;;;;;;;7.85;5.97;;;1.40;67.40;;;;;;5094157;28;20077;-76
2023/01/29 10:52:37;;;;;;;8.32;5.22;;;1.50;67.40;;;;;;5093869;28;20017;-75
2023/01/29 10:55:28;;;;;;;7.10;5.72;;;1.60;67.10;;;;;;5093571;28;20035;-76
2023/01/29 10:58:17;;;;;;;6.57;5.35;;;1.60;66.70;;;;;;5093168;28;20403;-75
2023/01/29 11:00:43;;;;;;;8.80;6.28;;;1.80;66.50;;;;;;5093773;28;20098;-76
2023/01/29 11:03:20;;;;;;;8.40;6.18;;;1.80;65.70;;;;;;5092519;28;20409;-75
2023/01/29 11:06:00;;;;;;;10.35;6.55;;;1.90;65.60;;;;;;5093725;28;20439;-77
2023/01/29 11:08:48;;;;;;;9.45;6.97;;;1.90;65.10;;;;;;5091267;28;20028;-76
2023/01/29 11:11:17;;;;;;;9.10;6.85;;;1.90;64.90;;;;;;5083795;28;20036;-76
2023/01/29 11:14:04;;;;;;;10.00;6.88;;;1.80;64.90;;;;;;5092047;28;20020;-75
2023/01/29 11:16:29;;;;;;;8.00;6.03;;;1.90;65.30;;;;;;5092163;28;20024;-76
2023/01/29 11:19:00;;;;;;;8.45;6.03;;;2.00;65.30;;;;;;5091780;28;20146;-75
2023/01/29 11:21:27;;;;;;;9.32;7.00;;;2.10;65.20;;;;;;5093018;28;20047;-76
2023/01/29 11:24:17;;;;;;;8.90;6.90;;;2.20;64.90;;;;;;5093224;28;20555;-76
2023/01/29 11:26:45;;;;;;;9.27;6.57;;;2.20;63.90;;;;;;5093504;28;20020;-74
2023/01/29 11:29:26;;;;;;;9.00;6.82;;;2.10;63.70;;;;;;5093367;28;20476;-74
2023/01/29 11:31:52;;;;;;;8.48;6.15;;;2.10;63.80;;;;;;5092940;28;20423;-75
2023/01/29 11:34:21;;;;;;;13.25;7.35;;;2.10;63.70;;;;;;5093376;28;20473;-76
2023/01/29 11:36:56;;;;;;;10.70;7.38;;;2.00;63.70;;;;;;5093386;28;20108;-75
2023/01/29 11:39:23;;;;;;;8.98;6.70;;;1.90;64.40;;;;;;5093177;28;20064;-76
2023/01/29 11:42:03;;;;;;;7.63;5.97;;;1.80;64.80;;;;;;5093118;28;20043;-75
2023/01/29 11:44:32;;;;;;;6.72;5.15;;;1.80;64.90;;;;;;5093229;28;20031;-75
2023/01/29 11:47:19;;;;;;;8.43;5.85;;;1.90;64.80;;;;;;5096317;28;20048;-76
2023/01/29 11:49:47;;;;;;;9.65;6.78;;;2.00;64.40;;;;;;5093038;28;20440;-78
2023/01/29 11:52:16;;;;;;;9.13;6.40;;;2.00;63.60;;;;;;5092942;28;20016;-76
2023/01/29 11:55:09;;;;;;;10.13;6.50;;;2.10;63.80;;;;;;5093003;28;20104;-76
2023/01/29 11:57:39;;;;;;;10.93;7.97;;;2.10;63.70;;;;;;5092865;28;20395;-75
2023/01/29 12:00:23;;;;;;;7.82;5.97;;;1.80;65.10;;;;;;5093033;28;20030;-77
2023/01/29 12:03:05;;;;;;;7.75;5.78;;;1.80;65.40;;;;;;5092080;28;20024;-75
2023/01/29 12:05:32;;;;;;;8.02;6.75;;;1.90;65.20;;;;;;5090638;28;20042;-73
2023/01/29 12:08:00;;;;;;;11.00;7.47;;;2.00;64.50;;;;;;5092940;28;20036;-75
2023/01/29 12:10:35;;;;;;;13.52;8.57;;;2.10;64.50;;;;;;5092866;28;20066;-76
2023/01/29 12:13:10;;;;;;;11.35;7.93;;;2.20;63.80;;;;;;5092775;28;20032;-74
2023/01/29 12:15:41;;;;;;;14.13;8.32;;;2.20;63.70;;;;;;5092811;28;20074;-76
2023/01/29 12:18:29;;;;;;;12.45;8.15;;;2.30;63.90;;;;;;5091283;28;20067;-76
2023/01/29 12:21:00;;;;;;;12.45;7.70;;;2.30;64.00;;;;;;5094328;28;20670;-76
2023/01/29 12:23:35;;;;;;;11.43;7.90;;;2.30;64.20;;;;;;5096550;28;20028;-73
2023/01/29 12:26:34;;;;;;;15.65;9.57;;;2.40;64.00;;;;;;5095163;28;20078;-74
2023/01/29 12:29:22;;;;;;;11.40;7.72;;;2.30;64.00;;;;;;5096685;28;20032;-75
2023/01/29 12:32:19;;;;;;;9.10;6.47;;;2.30;64.20;;;;;;5096551;28;20086;-73
2023/01/29 12:34:53;;;;;;;10.55;7.43;;;2.40;64.30;;;;;;5096527;28;20476;-75
2023/01/29 12:37:26;;;;;;;11.70;7.45;;;2.40;64.00;;;;;;5096653;28;20065;-75
2023/01/29 12:39:52;;;;;;;10.73;7.50;;;2.50;64.10;;;;;;5095323;28;20027;-72
2023/01/29 12:42:21;;;;;;;12.38;8.07;;;2.50;63.80;;;;;;5095981;28;20476;-74
2023/01/29 12:45:02;;;;;;;15.18;8.57;;;2.60;63.60;;;;;;5096331;28;20036;-74
2023/01/29 12:47:44;;;;;;;11.38;7.68;;;2.60;63.50;;;;;;5095495;28;20598;-74
2023/01/29 12:50:28;;;;;;;13.35;8.85;;;2.70;63.40;;;;;;5096134;28;20028;-76
2023/01/29 12:53:17;;;;;;;10.27;7.47;;;2.70;63.20;;;;;;5096097;28;20034;-74
2023/01/29 12:55:56;;;;;;;8.65;6.85;;;2.50;62.80;;;;;;5096190;28;20024;-74
2023/01/29 12:58:45;;;;;;;11.15;7.78;;;2.40;63.20;;;;;;5096015;28;20016;-74
2023/01/29 13:01:58;;;;;;;10.10;7.70;;;2.40;63.50;;;;;;5095872;28;20042;-74
2023/01/29 13:04:38;;;;;;;8.13;6.22;;;2.20;64.10;;;;;;5083476;28;20083;-74
2023/01/29 13:07:17;;;;;;;9.43;6.53;;;2.10;64.40;;;;;;5096031;28;20024;-74
2023/01/29 13:09:52;;;;;;;9.45;6.95;;;2.10;64.60;;;;;;5096046;28;20103;-74
2023/01/29 13:12:19;;;;;;;11.00;6.97;;;2.00;65.30;;;;;;5094552;28;20480;-78
2023/01/29 13:14:53;;;;;;;9.32;6.78;;;2.00;65.80;;;;;;5095437;28;20116;-77
2023/01/29 13:17:37;;;;;;;11.13;7.68;;;2.10;65.80;;;;;;5095635;28;20063;-76
2023/01/29 13:20:27;;;;;;;10.98;8.25;;;2.20;65.20;;;;;;5095807;28;20052;-78
2023/01/29 13:22:57;;;;;;;11.57;7.80;;;2.10;64.70;;;;;;5095687;28;20369;-77
2023/01/29 13:25:22;;;;;;;13.30;8.07;;;2.10;65.00;;;;;;5095718;28;20032;-77
2023/01/29 13:27:48;;;;;;;11.25;8.13;;;2.00;65.80;;;;;;5095591;28;20031;-77
2023/01/29 13:30:29;;;;;;;11.32;8.40;;;1.90;65.70;;;;;;5095694;28;20477;-74
2023/01/29 13:33:07;;;;;;;11.43;7.80;;;1.70;67.10;;;;;;5094920;28;20028;-74
2023/01/29 13:35:35;;;;;;;10.80;7.80;;;1.70;67.70;;;;;;5095294;28;20087;-73
2023/01/29 13:38:01;;;;;;;10.25;7.70;;;1.80;67.00;;;;;;5098052;28;20081;-75
2023/01/29 13:40:30;;;;;;;10.63;7.30;;;2.00;66.90;;;;;;5097674;28;20020;-75